createdAt,value
2019-04-05T00:00:25.662Z,11.15
2019-04-05T00:04:30.752Z,10.75
2019-04-05T00:08:35.721Z,10.08
2019-04-05T00:12:40.154Z,11.80
2019-04-05T00:16:45.141Z,9.35
2019-04-05T00:20:50.077Z,10.55
2019-04-05T00:24:55.176Z,10.58
2019-04-05T00:29:00.111Z,10.53
2019-04-05T00:33:05.994Z,10.08
2019-04-05T00:37:10.892Z,10.10
2019-04-05T00:41:15.847Z,10.15
2019-04-05T00:45:28.159Z,11.40
2019-04-05T00:49:27.477Z,11.05
2019-04-05T00:53:32.544Z,11.43
2019-04-05T00:57:38.800Z,10.30
2019-04-05T01:01:44.045Z,10.95
2019-04-05T01:05:48.872Z,12.50
2019-04-05T01:09:53.798Z,11.03
2019-04-05T01:13:59.892Z,11.18
2019-04-05T01:18:04.898Z,11.80
2019-04-05T01:22:13.022Z,11.28
2019-04-05T01:26:19.651Z,12.07
2019-04-05T01:30:24.559Z,12.28
2019-04-05T01:34:29.512Z,11.90
2019-04-05T01:38:34.365Z,12.20
2019-04-05T01:42:39.496Z,12.28
2019-04-05T01:46:44.816Z,12.85
2019-04-05T01:50:49.799Z,12.30
2019-04-05T01:54:55.003Z,11.97
2019-04-05T01:58:59.913Z,13.95
2019-04-05T02:03:05.349Z,12.58
2019-04-05T02:07:10.274Z,12.13
2019-04-05T02:11:15.240Z,12.35
2019-04-05T02:15:28.241Z,12.95
2019-04-05T02:19:33.155Z,10.63
2019-04-05T02:23:38.712Z,11.45
2019-04-05T02:27:43.641Z,9.70
2019-04-05T02:31:49.118Z,9.90
2019-04-05T02:35:54.032Z,9.68
2019-04-05T02:39:58.969Z,9.95
2019-04-05T02:44:05.963Z,9.53
2019-04-05T02:48:13.372Z,10.72
2019-04-05T02:52:20.659Z,9.88
2019-04-05T02:56:27.957Z,11.15
2019-04-05T03:00:34.109Z,10.78
2019-04-05T03:04:40.462Z,10.15
2019-04-05T03:08:45.557Z,12.43
2019-04-05T03:12:50.933Z,12.13
2019-04-05T03:16:56.776Z,12.60
2019-04-05T03:21:06.238Z,12.13
2019-04-05T03:25:11.266Z,13.65
2019-04-05T03:29:16.505Z,11.45
2019-04-05T03:33:22.265Z,11.68
2019-04-05T03:37:27.286Z,12.43
2019-04-05T03:41:32.641Z,11.73
2019-04-05T03:45:37.558Z,11.73
2019-04-05T03:49:42.493Z,10.70
2019-04-05T03:53:47.677Z,10.90
2019-04-05T03:57:52.898Z,10.32
2019-04-05T04:01:58.242Z,10.90
2019-04-05T04:06:03.469Z,11.15
2019-04-05T04:10:12.308Z,11.60
2019-04-05T04:14:17.713Z,10.75
2019-04-05T04:18:23.855Z,11.22
2019-04-05T04:22:29.890Z,11.12
2019-04-05T04:26:34.894Z,11.83
2019-04-05T04:30:40.827Z,11.90
2019-04-05T04:34:46.230Z,12.07
2019-04-05T04:38:52.012Z,12.18
2019-04-05T04:43:01.559Z,11.22
2019-04-05T04:47:09.399Z,13.15
2019-04-05T04:51:14.418Z,12.23
2019-04-05T04:55:19.436Z,12.45
2019-04-05T04:59:24.345Z,11.65
2019-04-05T05:03:30.428Z,13.00
2019-04-05T05:07:35.757Z,13.35
2019-04-05T05:11:40.887Z,13.32
2019-04-05T05:15:45.992Z,14.90
2019-04-05T05:19:50.930Z,15.18
2019-04-05T05:23:55.934Z,15.85
2019-04-05T05:28:00.885Z,17.45
2019-04-05T05:32:06.009Z,16.80
2019-04-05T05:36:10.946Z,15.32
2019-04-05T05:40:16.287Z,16.12
2019-04-05T05:44:21.232Z,17.15
2019-04-05T05:48:30.597Z,16.95
2019-04-05T05:52:35.083Z,17.95
2019-04-05T05:56:41.082Z,16.32
2019-04-05T06:00:45.977Z,16.90
2019-04-05T06:04:51.199Z,17.57
2019-04-05T06:08:56.105Z,17.82
2019-04-05T06:13:00.854Z,16.87
2019-04-05T06:17:05.867Z,16.50
2019-04-05T06:21:11.090Z,16.12
2019-04-05T06:25:15.970Z,16.55
2019-04-05T06:29:20.914Z,15.18
2019-04-05T06:33:31.740Z,15.13
2019-04-05T06:37:32.342Z,14.47
2019-04-05T06:41:37.252Z,14.10
2019-04-05T06:45:42.147Z,15.15
2019-04-05T06:49:47.049Z,14.93
2019-04-05T06:53:51.885Z,17.10
2019-04-05T06:57:56.786Z,15.72
2019-04-05T07:02:01.629Z,17.25
2019-04-05T07:06:06.514Z,16.27
2019-04-05T07:10:11.662Z,17.02
2019-04-05T07:14:16.564Z,17.77
2019-04-05T07:18:32.556Z,17.12
2019-04-05T07:22:38.519Z,18.30
2019-04-05T07:26:34.604Z,18.77
2019-04-05T07:30:39.408Z,17.17
2019-04-05T07:34:44.206Z,17.17
2019-04-05T07:38:49.115Z,15.60
2019-04-05T07:42:54.030Z,16.77
2019-04-05T07:46:58.772Z,16.17
2019-04-05T07:51:03.752Z,18.77
2019-04-05T07:55:09.036Z,18.25
2019-04-05T07:59:13.954Z,17.05
2019-04-05T08:03:19.493Z,17.23
2019-04-05T08:07:28.160Z,17.77
2019-04-05T08:11:33.060Z,17.85
2019-04-05T08:15:37.895Z,17.20
2019-04-05T08:19:42.792Z,16.75
2019-04-05T08:23:47.653Z,16.48
2019-04-05T08:27:52.544Z,15.10
2019-04-05T08:31:57.464Z,15.03
2019-04-05T08:36:02.252Z,16.17
2019-04-05T08:40:07.439Z,16.70
2019-04-05T08:44:12.784Z,15.80
2019-04-05T08:48:17.696Z,15.93
2019-04-05T08:52:22.558Z,15.18
2019-04-05T08:56:27.434Z,14.85
2019-04-05T09:00:32.351Z,13.88
2019-04-05T09:04:37.290Z,13.55
2019-04-05T09:08:42.193Z,11.95
2019-04-05T09:12:47.091Z,13.30
2019-04-05T09:16:51.909Z,12.07
2019-04-05T09:20:56.823Z,12.20
2019-04-05T09:25:01.585Z,12.90
2019-04-05T09:29:09.094Z,12.47
2019-04-05T09:33:13.520Z,12.80
2019-04-05T09:37:18.277Z,13.83
2019-04-05T09:41:23.100Z,14.20
2019-04-05T09:45:28.009Z,13.10
2019-04-05T09:49:36.898Z,13.78
2019-04-05T09:53:39.466Z,12.50
2019-04-05T09:57:44.237Z,11.53
2019-04-05T10:01:49.103Z,12.60
2019-04-05T10:05:55.144Z,12.55
2019-04-05T10:10:00.083Z,14.13
2019-04-05T10:14:05.094Z,13.55
2019-04-05T10:18:09.927Z,13.55
2019-04-05T10:22:14.817Z,14.40
2019-04-05T10:26:19.756Z,12.73
2019-04-05T10:30:24.677Z,13.40
2019-04-05T10:34:29.444Z,14.13
2019-04-05T10:38:34.383Z,14.58
2019-04-05T10:42:39.307Z,14.63
2019-04-05T10:46:44.212Z,13.85
2019-04-05T10:50:49.167Z,12.55
2019-04-05T10:54:54.075Z,13.80
2019-04-05T10:58:58.912Z,14.33
2019-04-05T11:03:03.825Z,13.93
2019-04-05T11:07:08.707Z,14.05
2019-04-05T11:11:13.676Z,15.00
2019-04-05T11:15:19.086Z,12.85
2019-04-05T11:19:23.997Z,14.70
2019-04-05T11:23:29.241Z,14.00
2019-04-05T11:27:33.981Z,14.28
2019-04-05T11:31:38.893Z,14.78
2019-04-05T11:35:44.469Z,14.95
2019-04-05T11:39:49.595Z,15.00
2019-04-05T11:43:55.395Z,16.00
2019-04-05T11:48:02.425Z,15.30
2019-04-05T11:52:07.380Z,15.48
2019-04-05T11:56:14.914Z,14.43
2019-04-05T12:00:24.127Z,15.83
2019-04-05T12:04:28.966Z,15.20
2019-04-05T12:08:33.943Z,15.10
2019-04-05T12:12:38.775Z,16.05
2019-04-05T12:16:43.681Z,14.28
2019-04-05T12:20:57.839Z,14.85
2019-04-05T12:24:54.957Z,14.45
2019-04-05T12:28:59.717Z,13.93
2019-04-05T12:33:13.651Z,14.03
2019-04-05T12:37:14.144Z,13.95
2019-04-05T12:41:19.067Z,14.73
2019-04-05T12:45:24.009Z,13.93
2019-04-05T12:49:28.902Z,15.15
2019-04-05T12:53:33.753Z,15.78
2019-04-05T12:57:38.901Z,15.60
2019-04-05T13:01:45.541Z,15.08
2019-04-05T13:05:51.489Z,15.38
2019-04-05T13:09:56.786Z,15.95
2019-04-05T13:14:01.736Z,14.75
2019-04-05T13:18:06.624Z,15.95
2019-04-05T13:22:11.622Z,15.90
2019-04-05T13:26:16.545Z,15.98
2019-04-05T13:30:21.475Z,14.87
2019-04-05T13:34:26.882Z,16.32
2019-04-05T13:38:31.688Z,17.02
2019-04-05T13:42:36.617Z,16.57
2019-04-05T13:46:42.866Z,17.50
2019-04-05T13:50:48.071Z,17.17
2019-04-05T13:54:52.933Z,16.62
2019-04-05T13:58:57.824Z,15.75
2019-04-05T14:03:02.903Z,15.50
2019-04-05T14:07:07.874Z,16.35
2019-04-05T14:11:12.725Z,16.32
2019-04-05T14:15:17.677Z,15.65
2019-04-05T14:19:22.575Z,14.05
2019-04-05T14:23:27.509Z,14.07
2019-04-05T14:27:34.938Z,12.55
2019-04-05T14:31:38.937Z,13.70
2019-04-05T14:35:44.011Z,14.40
2019-04-05T14:39:48.828Z,14.87
2019-04-05T14:43:53.658Z,16.50
2019-04-05T14:47:58.713Z,15.08
2019-04-05T14:52:03.700Z,15.18
2019-04-05T14:56:08.640Z,14.33
2019-04-05T15:00:15.938Z,14.38
2019-04-05T15:04:20.832Z,13.85
2019-04-05T15:08:25.843Z,14.40
2019-04-05T15:12:30.636Z,14.68
2019-04-05T15:16:35.557Z,14.35
2019-04-05T15:20:40.508Z,15.58
2019-04-05T15:24:47.234Z,15.55
2019-04-05T15:28:55.218Z,14.25
2019-04-05T15:33:01.575Z,14.53
2019-04-05T15:37:06.413Z,13.72
2019-04-05T15:41:11.366Z,16.60
2019-04-05T15:45:16.675Z,16.50
2019-04-05T15:49:22.304Z,18.00
2019-04-05T15:53:27.373Z,18.45
2019-04-05T15:57:54.018Z,17.23
2019-04-05T16:02:05.513Z,18.50
2019-04-05T16:06:14.453Z,18.62
2019-04-05T16:10:20.868Z,18.45
2019-04-05T16:14:25.777Z,18.20
2019-04-05T16:18:30.517Z,19.12
2019-04-05T16:22:35.964Z,21.97
2019-04-05T16:26:44.214Z,21.42
2019-04-05T16:30:51.333Z,20.72
2019-04-05T16:34:56.127Z,21.65
2019-04-05T16:39:00.914Z,22.17
2019-04-05T16:43:07.616Z,21.07
2019-04-05T16:47:12.432Z,19.87
2019-04-05T16:51:17.214Z,19.80
2019-04-05T16:55:22.024Z,19.48
2019-04-05T16:59:26.765Z,18.70
2019-04-05T17:03:31.726Z,19.17
2019-04-05T17:07:37.391Z,19.27
2019-04-05T17:11:42.676Z,19.32
2019-04-05T17:15:47.479Z,20.05
2019-04-05T17:19:52.291Z,19.12
2019-04-05T17:23:57.133Z,19.67
2019-04-05T17:28:02.040Z,20.08
2019-04-05T17:32:07.148Z,19.62
2019-04-05T17:36:12.096Z,19.85
2019-04-05T17:40:17.256Z,20.27
2019-04-05T17:44:22.201Z,22.45
2019-04-05T17:48:26.956Z,21.33
2019-04-05T17:52:32.062Z,21.85
2019-04-05T17:56:37.903Z,20.15
2019-04-05T18:00:43.924Z,20.15
2019-04-05T18:04:49.094Z,22.17
2019-04-05T18:08:53.863Z,23.02
2019-04-05T18:12:59.019Z,23.27
2019-04-05T18:17:04.525Z,24.00
2019-04-05T18:21:09.652Z,25.17
2019-04-05T18:25:14.575Z,24.70
2019-04-05T18:29:19.398Z,24.82
2019-04-05T18:33:24.494Z,25.68
2019-04-05T18:37:29.242Z,25.85
2019-04-05T18:41:34.636Z,25.15
2019-04-05T18:45:39.712Z,24.65
2019-04-05T18:49:44.875Z,25.15
2019-04-05T18:53:51.111Z,25.25
2019-04-05T18:57:56.458Z,24.07
2019-04-05T19:02:01.667Z,24.40
2019-04-05T19:06:06.640Z,25.30
2019-04-05T19:10:12.680Z,24.77
2019-04-05T19:14:17.783Z,25.30
2019-04-05T19:18:22.602Z,25.48
2019-04-05T19:22:27.697Z,25.32
2019-04-05T19:26:32.485Z,25.57
2019-04-05T19:51:11.696Z,29.80
2019-04-05T19:55:16.462Z,34.20
2019-04-05T19:59:21.221Z,27.25
2019-04-05T20:03:26.292Z,28.80
2019-04-05T20:07:31.315Z,26.90
2019-04-05T20:11:36.393Z,27.13
2019-04-05T20:15:41.130Z,26.62
2019-04-05T20:19:46.947Z,26.27
2019-04-05T20:23:52.503Z,28.85
2019-04-05T20:27:57.316Z,26.65
2019-04-05T20:32:02.400Z,29.07
2019-04-05T20:36:08.045Z,29.27
2019-04-05T20:40:13.546Z,29.50
2019-04-05T20:44:18.692Z,27.55
2019-04-05T20:48:23.878Z,26.00
2019-04-05T20:52:29.191Z,26.10
2019-04-05T20:56:34.768Z,28.27
2019-04-05T21:00:39.864Z,28.98
2019-04-05T21:04:44.957Z,28.57
2019-04-05T21:08:49.865Z,28.50
2019-04-05T21:12:54.974Z,28.05
2019-04-05T21:16:59.755Z,28.27
2019-04-05T21:21:04.868Z,27.30
2019-04-05T21:25:10.240Z,26.97
2019-04-05T21:29:15.338Z,27.42
2019-04-05T21:33:20.348Z,27.45
2019-04-05T21:37:25.238Z,25.35
2019-04-05T21:41:30.283Z,27.20
2019-04-05T21:45:35.093Z,24.27
2019-04-05T21:49:39.919Z,25.90
2019-04-05T21:53:44.798Z,23.77
2019-04-05T21:57:49.586Z,25.95
2019-04-05T22:01:54.885Z,25.10
2019-04-05T22:05:59.764Z,25.97
2019-04-05T22:10:05.596Z,25.77
2019-04-05T22:14:10.544Z,25.65
2019-04-05T22:18:15.348Z,25.00
2019-04-05T22:22:20.656Z,25.23
2019-04-05T22:26:25.388Z,25.20
2019-04-05T22:30:30.323Z,24.98
2019-04-05T22:34:35.441Z,25.55
2019-04-05T22:38:40.230Z,25.15
2019-04-05T22:42:45.231Z,23.62
2019-04-05T22:46:49.984Z,24.50
2019-04-05T22:50:54.754Z,23.62
2019-04-05T22:55:10.504Z,24.82
2019-04-05T22:59:06.038Z,22.55
2019-04-05T23:03:11.166Z,24.67
2019-04-05T23:07:16.004Z,24.27
2019-04-05T23:11:20.855Z,26.42
2019-04-05T23:15:25.763Z,25.17
2019-04-05T23:19:30.570Z,24.18
2019-04-05T23:23:35.583Z,25.32
2019-04-05T23:27:40.316Z,26.12
2019-04-05T23:31:45.346Z,25.50
2019-04-05T23:35:50.151Z,24.90
2019-04-05T23:39:54.964Z,23.70
2019-04-05T23:43:59.891Z,23.20
2019-04-05T23:48:04.783Z,24.00
2019-04-05T23:52:09.783Z,24.52
2019-04-05T23:56:14.663Z,24.30
